Terminal Aerodrome Forecast
Issued by NWS Wichita, KS

Home | Current Version | Previous Version | Text Only | Print | Product List | Glossary On
Versions: 1 2 3 4 5 6 7 8 9 10 11 12 13 14 15
000
FTUS43 KICT 041726
TAFICT
TAF
KICT 041726Z 0418/0518 17016G23KT P6SM SCT090 BKN250
     FM050100 16010KT P6SM SCT100 BKN250
     FM050800 15009KT P6SM VCTS SCT025 BKN100CB
     FM051400 16014G20KT P6SM SCT035 BKN120=

USA.gov is the U.S. government's official web portal to all federal, state and local government web resources and services.